Time;durP1;ratioP1;P1;durP2;ratioP2;P2;SDS_P1;SDS_P2;PMS_P1;PMS_P2;Temp;Humidity;BMP_temperature;BMP_pressure;BME280_temperature;BME280_humidity;BME280_pressure;Samples;Min_cycle;Max_cycle;Signal;HPM_P1;HPM_P2
2022/03/18 00:02:17;;;;;;;59.38;24.65;;;;;;;;;;5093315;28;20044;-86
2022/03/18 00:04:46;;;;;;;55.92;24.25;;;;;;;;;;5091091;28;20075;-86
2022/03/18 00:07:15;;;;;;;59.40;24.08;;;;;;;;;;5092725;28;20055;-86
2022/03/18 00:09:46;;;;;;;59.60;25.83;;;;;;;;;;5090077;28;20132;-87
2022/03/18 00:12:14;;;;;;;62.22;25.65;;;;;;;;;;5092729;28;20109;-87
2022/03/18 00:14:43;;;;;;;57.97;25.42;;;;;;;;;;5092049;28;20123;-85
2022/03/18 00:17:12;;;;;;;62.80;24.13;;;;;;;;;;5090565;28;20163;-86
2022/03/18 00:19:42;;;;;;;61.95;25.15;;;;;;;;;;5084757;28;20040;-86
2022/03/18 00:22:12;;;;;;;57.95;25.02;;;;;;;;;;5091797;28;20075;-87
2022/03/18 00:24:41;;;;;;;63.33;26.67;;;;;;;;;;5092724;28;20040;-86
2022/03/18 00:27:09;;;;;;;56.90;24.73;;;;;;;;;;5093001;28;20086;-85
2022/03/18 00:29:41;;;;;;;58.92;24.35;;;;;;;;;;5088582;28;20755;-86
2022/03/18 00:32:10;;;;;;;60.65;25.50;;;;;;;;;;5089222;28;20080;-87
2022/03/18 00:34:38;;;;;;;63.47;24.98;;;;;;;;;;5090456;28;20052;-89
2022/03/18 00:37:08;;;;;;;62.47;24.35;;;;;;;;;;5092176;28;20104;-94
2022/03/18 00:39:37;;;;;;;56.45;24.52;;;;;;;;;;5090905;28;20086;-87
2022/03/18 00:42:06;;;;;;;62.65;24.95;;;;;;;;;;5089881;28;20115;-85
2022/03/18 00:44:34;;;;;;;56.05;24.63;;;;;;;;;;5092466;28;20146;-87
2022/03/18 00:47:03;;;;;;;57.80;24.00;;;;;;;;;;5090644;28;20040;-89
2022/03/18 00:52:18;;;;;;;56.38;23.85;;;;;;;;;;5090601;28;20063;-87
2022/03/18 00:54:47;;;;;;;59.00;24.42;;;;;;;;;;5092142;28;20051;-86
2022/03/18 00:57:15;;;;;;;55.15;23.90;;;;;;;;;;5089316;28;20463;-86
2022/03/18 00:59:43;;;;;;;57.92;25.40;;;;;;;;;;5092015;28;20086;-85
2022/03/18 01:02:12;;;;;;;58.90;24.08;;;;;;;;;;5090715;28;20126;-87
2022/03/18 01:04:40;;;;;;;59.35;24.73;;;;;;;;;;5092407;28;20052;-86
2022/03/18 01:07:09;;;;;;;63.78;25.50;;;;;;;;;;5084642;28;20036;-85
2022/03/18 01:09:38;;;;;;;64.10;25.13;;;;;;;;;;5077347;28;20048;-87
2022/03/18 01:12:07;;;;;;;59.05;24.77;;;;;;;;;;5088319;28;20543;-86
2022/03/18 01:14:35;;;;;;;56.85;23.95;;;;;;;;;;5083461;28;20050;-86
2022/03/18 01:17:04;;;;;;;57.42;25.05;;;;;;;;;;5084947;28;20079;-86
2022/03/18 01:19:32;;;;;;;55.72;24.90;;;;;;;;;;5091721;28;20119;-85
2022/03/18 01:22:01;;;;;;;56.85;23.77;;;;;;;;;;5071862;28;20471;-85
2022/03/18 01:24:29;;;;;;;63.40;26.05;;;;;;;;;;5087275;28;20108;-86
2022/03/18 01:26:59;;;;;;;60.20;24.58;;;;;;;;;;5089603;28;20056;-87
2022/03/18 01:29:27;;;;;;;59.92;25.40;;;;;;;;;;5090192;28;20072;-88
2022/03/18 01:31:56;;;;;;;58.03;25.55;;;;;;;;;;5091527;28;20044;-88
2022/03/18 01:34:24;;;;;;;57.00;23.15;;;;;;;;;;5089687;28;20090;-88
2022/03/18 01:36:52;;;;;;;59.58;24.73;;;;;;;;;;5091014;28;20083;-88
2022/03/18 01:39:22;;;;;;;57.85;24.02;;;;;;;;;;5086713;28;20052;-86
2022/03/18 01:41:51;;;;;;;56.80;25.17;;;;;;;;;;5090523;28;20792;-86
2022/03/18 01:44:21;;;;;;;59.75;24.30;;;;;;;;;;5087154;28;20084;-86
2022/03/18 01:46:50;;;;;;;61.92;24.27;;;;;;;;;;5094008;28;20098;-87
2022/03/18 01:49:18;;;;;;;56.13;24.13;;;;;;;;;;5092706;28;20048;-86
2022/03/18 01:51:47;;;;;;;54.70;22.98;;;;;;;;;;5095471;28;20174;-87
2022/03/18 01:57:01;;;;;;;54.60;23.80;;;;;;;;;;5092738;28;20054;-86
2022/03/18 01:59:30;;;;;;;59.33;22.98;;;;;;;;;;5093123;28;20584;-87
2022/03/18 02:01:58;;;;;;;57.00;23.80;;;;;;;;;;5095546;28;20044;-87
2022/03/18 02:04:27;;;;;;;58.00;24.63;;;;;;;;;;5093596;28;20181;-92
2022/03/18 02:06:56;;;;;;;61.70;24.40;;;;;;;;;;5093666;28;20373;-87
2022/03/18 02:09:24;;;;;;;57.67;22.70;;;;;;;;;;5093107;28;20131;-86
2022/03/18 02:11:52;;;;;;;53.92;22.77;;;;;;;;;;5090996;28;20130;-86
2022/03/18 02:14:32;;;;;;;61.90;24.95;;;;;;;;;;5090360;28;20036;-86
2022/03/18 02:17:00;;;;;;;58.85;24.50;;;;;;;;;;5081572;28;20084;-86
2022/03/18 02:19:28;;;;;;;54.38;23.10;;;;;;;;;;5093164;28;20044;-86
2022/03/18 02:22:00;;;;;;;56.00;23.33;;;;;;;;;;5094736;28;20174;-92
2022/03/18 02:24:29;;;;;;;58.45;23.58;;;;;;;;;;5092136;28;20048;-89
2022/03/18 02:26:58;;;;;;;49.20;22.30;;;;;;;;;;5095020;28;20135;-92
2022/03/18 02:29:26;;;;;;;58.58;23.13;;;;;;;;;;5093418;28;20075;-90
2022/03/18 02:31:55;;;;;;;54.40;22.77;;;;;;;;;;5093074;28;20609;-88
2022/03/18 02:34:24;;;;;;;55.97;23.75;;;;;;;;;;5093304;28;20196;-86
2022/03/18 02:36:52;;;;;;;52.35;22.48;;;;;;;;;;5092842;28;20088;-86
2022/03/18 02:39:20;;;;;;;57.25;22.67;;;;;;;;;;5092422;28;20120;-87
2022/03/18 02:41:50;;;;;;;52.70;23.83;;;;;;;;;;5091353;28;20134;-86
2022/03/18 02:44:18;;;;;;;51.63;23.10;;;;;;;;;;5092457;28;20544;-85
2022/03/18 02:46:47;;;;;;;56.33;24.10;;;;;;;;;;5093841;28;20536;-86
2022/03/18 02:49:15;;;;;;;58.90;23.40;;;;;;;;;;5092939;28;20040;-86
2022/03/18 02:51:43;;;;;;;56.95;22.17;;;;;;;;;;5093771;28;20040;-85
2022/03/18 02:54:12;;;;;;;55.97;24.25;;;;;;;;;;5092207;28;20098;-85
2022/03/18 02:56:41;;;;;;;50.60;21.95;;;;;;;;;;5092282;28;20040;-85
2022/03/18 02:59:10;;;;;;;55.10;23.17;;;;;;;;;;5092993;28;20052;-86
2022/03/18 03:01:39;;;;;;;56.20;23.05;;;;;;;;;;5084308;28;20076;-87
2022/03/18 03:04:08;;;;;;;52.30;22.70;;;;;;;;;;5092739;28;20123;-86
2022/03/18 03:09:22;;;;;;;57.50;24.20;;;;;;;;;;5088639;28;20075;-90
2022/03/18 03:11:51;;;;;;;52.08;22.67;;;;;;;;;;5091277;28;20083;-88
2022/03/18 03:14:20;;;;;;;59.42;22.92;;;;;;;;;;5093810;28;20052;-86
2022/03/18 03:16:49;;;;;;;58.38;24.05;;;;;;;;;;5094086;28;20446;-88
2022/03/18 03:19:17;;;;;;;59.67;23.13;;;;;;;;;;5093364;28;20071;-86
2022/03/18 03:21:45;;;;;;;63.10;24.92;;;;;;;;;;5091514;28;20147;-89
2022/03/18 03:24:14;;;;;;;59.90;23.83;;;;;;;;;;5092692;28;20479;-86
2022/03/18 03:26:42;;;;;;;58.33;23.15;;;;;;;;;;5092815;28;20117;-86
2022/03/18 03:29:11;;;;;;;59.28;22.98;;;;;;;;;;5083656;28;20072;-86
2022/03/18 03:31:40;;;;;;;51.22;22.95;;;;;;;;;;5091652;28;20044;-85
2022/03/18 03:34:09;;;;;;;55.05;22.58;;;;;;;;;;5093129;28;20123;-86
2022/03/18 03:36:37;;;;;;;57.15;23.15;;;;;;;;;;5092314;28;20143;-86
2022/03/18 03:39:05;;;;;;;60.70;23.00;;;;;;;;;;5089164;28;20395;-88
2022/03/18 03:41:34;;;;;;;54.80;23.95;;;;;;;;;;5086757;28;20036;-86
2022/03/18 03:44:02;;;;;;;59.47;24.55;;;;;;;;;;5089552;28;20551;-86
2022/03/18 03:46:33;;;;;;;57.65;23.08;;;;;;;;;;5092311;28;20476;-86
2022/03/18 03:49:03;;;;;;;54.70;22.80;;;;;;;;;;5088548;28;20090;-86
2022/03/18 03:51:32;;;;;;;56.60;23.30;;;;;;;;;;5090127;28;20123;-88
2022/03/18 03:54:00;;;;;;;57.65;22.92;;;;;;;;;;5092591;28;20151;-86
2022/03/18 03:56:28;;;;;;;53.10;23.38;;;;;;;;;;5091357;28;20054;-86
2022/03/18 03:58:57;;;;;;;56.05;23.10;;;;;;;;;;5087036;28;20115;-88
2022/03/18 04:01:25;;;;;;;54.35;22.95;;;;;;;;;;5091857;28;20040;-88
2022/03/18 04:03:54;;;;;;;52.33;22.95;;;;;;;;;;5091938;28;20048;-86
2022/03/18 04:06:24;;;;;;;53.60;22.73;;;;;;;;;;5091090;28;20878;-86
2022/03/18 04:08:52;;;;;;;60.75;24.33;;;;;;;;;;5090673;28;20120;-85
2022/03/18 04:11:20;;;;;;;56.55;23.45;;;;;;;;;;5088843;28;20044;-86
2022/03/18 04:13:49;;;;;;;52.80;21.70;;;;;;;;;;5081728;28;20078;-85
2022/03/18 04:16:17;;;;;;;55.90;24.40;;;;;;;;;;5088695;28;20072;-88
2022/03/18 04:18:45;;;;;;;57.90;23.00;;;;;;;;;;5092527;28;20127;-85
2022/03/18 04:21:14;;;;;;;55.33;23.00;;;;;;;;;;5091779;28;20456;-87
2022/03/18 04:23:43;;;;;;;58.38;23.30;;;;;;;;;;5091728;28;20036;-86
2022/03/18 04:26:12;;;;;;;53.45;23.08;;;;;;;;;;5092940;28;20056;-87
2022/03/18 04:28:40;;;;;;;55.25;23.80;;;;;;;;;;5093910;28;20051;-86
2022/03/18 04:31:08;;;;;;;50.35;21.70;;;;;;;;;;5090602;28;20079;-87
2022/03/18 04:33:37;;;;;;;56.85;23.05;;;;;;;;;;5096982;28;20052;-88
2022/03/18 04:36:08;;;;;;;62.15;23.13;;;;;;;;;;5099569;28;20051;-87
2022/03/18 04:38:37;;;;;;;51.15;21.95;;;;;;;;;;5096399;28;20393;-86
2022/03/18 04:41:12;;;;;;;53.00;21.15;;;;;;;;;;5099246;28;20048;-86
2022/03/18 04:43:41;;;;;;;57.55;22.42;;;;;;;;;;5082741;28;20036;-88
2022/03/18 04:46:10;;;;;;;53.97;22.20;;;;;;;;;;5088348;28;20052;-86
2022/03/18 04:48:38;;;;;;;55.63;21.20;;;;;;;;;;5090655;28;20085;-86
2022/03/18 04:51:07;;;;;;;51.33;21.60;;;;;;;;;;5091869;28;20074;-88
2022/03/18 04:53:36;;;;;;;53.25;21.45;;;;;;;;;;5092459;28;20082;-85
2022/03/18 04:57:15;;;;;;;58.55;22.83;;;;;;;;;;5091358;28;20091;-86
2022/03/18 04:58:57;;;;;;;51.63;20.70;;;;;;;;;;5089493;28;20123;-89
2022/03/18 05:01:26;;;;;;;54.08;21.85;;;;;;;;;;5090598;28;20079;-86
2022/03/18 05:03:55;;;;;;;56.58;22.33;;;;;;;;;;5087999;28;20059;-86
2022/03/18 05:06:23;;;;;;;58.50;21.25;;;;;;;;;;5089290;28;20455;-86
2022/03/18 05:08:52;;;;;;;51.47;22.40;;;;;;;;;;5084282;28;20068;-87
2022/03/18 05:11:20;;;;;;;55.10;22.05;;;;;;;;;;5090117;28;20078;-86
2022/03/18 05:13:48;;;;;;;50.17;21.27;;;;;;;;;;5090614;28;20470;-86
2022/03/18 05:16:18;;;;;;;52.00;22.70;;;;;;;;;;5091442;28;20090;-87
2022/03/18 05:18:48;;;;;;;56.55;22.52;;;;;;;;;;5088995;28;20047;-92
2022/03/18 05:21:16;;;;;;;52.78;22.15;;;;;;;;;;5090611;28;20324;-86
2022/03/18 05:23:46;;;;;;;50.28;21.73;;;;;;;;;;5089646;28;20097;-87
2022/03/18 05:26:14;;;;;;;53.53;20.70;;;;;;;;;;5091639;28;20097;-85
2022/03/18 05:28:43;;;;;;;49.30;21.67;;;;;;;;;;5093087;28;20075;-85
2022/03/18 05:31:11;;;;;;;48.55;21.27;;;;;;;;;;5091124;28;20311;-86
2022/03/18 05:33:43;;;;;;;47.00;19.23;;;;;;;;;;5086818;28;20048;-85
2022/03/18 05:36:12;;;;;;;50.58;21.60;;;;;;;;;;5090318;28;20060;-86
2022/03/18 05:38:40;;;;;;;51.13;21.55;;;;;;;;;;5089591;28;20048;-85
2022/03/18 05:41:09;;;;;;;52.97;21.27;;;;;;;;;;5092909;28;20079;-85
2022/03/18 05:43:39;;;;;;;50.03;20.40;;;;;;;;;;5090303;28;20066;-88
2022/03/18 05:46:08;;;;;;;47.83;21.25;;;;;;;;;;5093792;28;20075;-91
2022/03/18 05:48:36;;;;;;;52.78;19.63;;;;;;;;;;5094129;28;20072;-85
2022/03/18 05:51:09;;;;;;;53.85;19.13;;;;;;;;;;5085480;28;20043;-86
2022/03/18 05:53:38;;;;;;;50.53;20.15;;;;;;;;;;5089347;28;20468;-87
2022/03/18 05:58:54;;;;;;;49.53;20.80;;;;;;;;;;5095877;28;20039;-86
2022/03/18 06:01:23;;;;;;;56.78;21.40;;;;;;;;;;5094351;28;20488;-87
2022/03/18 06:03:52;;;;;;;48.10;20.20;;;;;;;;;;5086697;28;20407;-88
2022/03/18 06:06:27;;;;;;;51.80;21.63;;;;;;;;;;5086781;28;20525;-86
2022/03/18 06:11:53;;;;;;;56.10;23.73;;;;;;;;;;5089385;28;20048;-89
2022/03/18 06:14:23;;;;;;;59.03;22.63;;;;;;;;;;5080880;28;20044;-86
2022/03/18 06:16:52;;;;;;;53.55;21.70;;;;;;;;;;5084507;28;20044;-90
2022/03/18 06:19:22;;;;;;;54.05;21.60;;;;;;;;;;5084599;28;20044;-88
2022/03/18 06:21:52;;;;;;;52.72;21.17;;;;;;;;;;5087805;28;20044;-86
2022/03/18 06:24:29;;;;;;;48.83;21.00;;;;;;;;;;5090235;28;20070;-89
2022/03/18 06:36:18;;;;;;;55.67;22.33;;;;;;;;;;5028931;28;20536;-89
2022/03/18 06:38:48;;;;;;;46.90;20.83;;;;;;;;;;5037950;28;20122;-90
2022/03/18 06:41:16;;;;;;;55.75;21.38;;;;;;;;;;5045775;28;20045;-88
2022/03/18 06:43:45;;;;;;;61.58;23.75;;;;;;;;;;5049549;28;20049;-89
2022/03/18 06:46:14;;;;;;;60.17;23.50;;;;;;;;;;5067225;28;20555;-89
2022/03/18 06:48:43;;;;;;;53.47;22.23;;;;;;;;;;5050049;28;20045;-88
2022/03/18 06:51:12;;;;;;;51.83;20.92;;;;;;;;;;5048821;28;20057;-90
2022/03/18 06:53:41;;;;;;;51.28;22.50;;;;;;;;;;5051735;28;20056;-89
2022/03/18 06:56:12;;;;;;;59.33;22.27;;;;;;;;;;5057200;28;20056;-90
2022/03/18 06:58:42;;;;;;;50.70;22.15;;;;;;;;;;5051984;28;20123;-89
2022/03/18 07:01:12;;;;;;;66.32;24.23;;;;;;;;;;5051777;28;20562;-90
2022/03/18 07:03:42;;;;;;;50.22;21.13;;;;;;;;;;5049819;28;20052;-90
2022/03/18 07:06:10;;;;;;;53.28;22.83;;;;;;;;;;5043234;28;20041;-88
2022/03/18 07:08:39;;;;;;;49.85;21.83;;;;;;;;;;5048904;28;20106;-90
2022/03/18 07:11:09;;;;;;;47.75;20.45;;;;;;;;;;5049991;28;20052;-89
2022/03/18 07:13:39;;;;;;;49.50;20.90;;;;;;;;;;5050250;28;20144;-89
2022/03/18 07:18:54;;;;;;;45.13;19.52;;;;;;;;;;5055337;28;20571;-90
2022/03/18 07:21:23;;;;;;;55.95;20.45;;;;;;;;;;5048297;28;20047;-89
2022/03/18 07:23:51;;;;;;;47.60;20.60;;;;;;;;;;5047172;28;20102;-89
2022/03/18 07:26:20;;;;;;;45.42;19.98;;;;;;;;;;5052881;28;20084;-89
2022/03/18 07:28:50;;;;;;;46.20;20.17;;;;;;;;;;5049157;28;20059;-89
2022/03/18 07:31:18;;;;;;;47.65;19.98;;;;;;;;;;5051392;28;20457;-89
2022/03/18 07:33:47;;;;;;;52.50;20.63;;;;;;;;;;5047268;28;20528;-88
2022/03/18 07:36:17;;;;;;;50.53;20.95;;;;;;;;;;5050903;28;20057;-88
2022/03/18 07:38:46;;;;;;;43.08;19.02;;;;;;;;;;5030759;28;20053;-88
2022/03/18 07:41:17;;;;;;;47.08;20.90;;;;;;;;;;5046430;28;20083;-89
2022/03/18 07:43:46;;;;;;;48.90;20.10;;;;;;;;;;5046702;28;20149;-88
2022/03/18 07:46:17;;;;;;;40.70;19.92;;;;;;;;;;5048628;28;20049;-88
2022/03/18 07:48:46;;;;;;;41.83;19.45;;;;;;;;;;5049219;28;20056;-88
2022/03/18 07:51:15;;;;;;;41.15;17.65;;;;;;;;;;5032267;28;20048;-88
2022/03/18 07:53:44;;;;;;;44.10;18.73;;;;;;;;;;5050359;28;20052;-88
2022/03/18 07:56:13;;;;;;;47.65;20.33;;;;;;;;;;5047898;28;20352;-90
2022/03/18 08:01:29;;;;;;;40.25;18.52;;;;;;;;;;5050859;28;20744;-91
2022/03/18 08:04:01;;;;;;;42.40;19.20;;;;;;;;;;5046732;28;20407;-89
2022/03/18 08:06:30;;;;;;;47.35;19.67;;;;;;;;;;5048797;28;20059;-88
2022/03/18 08:08:59;;;;;;;44.80;18.50;;;;;;;;;;5035946;28;20364;-88
2022/03/18 08:11:28;;;;;;;38.70;17.88;;;;;;;;;;5047023;28;20087;-89
2022/03/18 08:13:58;;;;;;;41.60;19.75;;;;;;;;;;5060921;28;20049;-89
2022/03/18 08:16:30;;;;;;;41.10;17.85;;;;;;;;;;5052585;28;20053;-88
2022/03/18 08:18:59;;;;;;;48.90;18.73;;;;;;;;;;5051674;28;20048;-89
2022/03/18 08:21:32;;;;;;;44.67;18.92;;;;;;;;;;5050525;28;20041;-88
2022/03/18 08:24:01;;;;;;;40.03;18.23;;;;;;;;;;5048206;28;20060;-88
2022/03/18 08:26:30;;;;;;;38.83;18.30;;;;;;;;;;5051124;28;20044;-91
2022/03/18 08:28:59;;;;;;;42.92;19.15;;;;;;;;;;5051156;28;20099;-91
2022/03/18 08:31:39;;;;;;;41.65;19.40;;;;;;;;;;5050324;28;20049;-90
2022/03/18 08:34:10;;;;;;;45.47;19.65;;;;;;;;;;5037603;28;20053;-90
2022/03/18 08:36:40;;;;;;;35.95;17.90;;;;;;;;;;5051939;28;20049;-91
2022/03/18 08:42:11;;;;;;;45.88;18.10;;;;;;;;;;4999369;28;20102;-86
2022/03/18 08:44:41;;;;;;;44.22;18.30;;;;;;;;;;5000713;28;20069;-87
2022/03/18 08:47:11;;;;;;;40.13;18.42;;;;;;;;;;5003108;28;20050;-86
2022/03/18 08:49:40;;;;;;;40.42;17.60;;;;;;;;;;5006477;28;20046;-86
2022/03/18 08:52:09;;;;;;;45.28;18.77;;;;;;;;;;5007250;28;20142;-85
2022/03/18 08:54:37;;;;;;;40.45;18.92;;;;;;;;;;5007790;28;20053;-86
2022/03/18 08:57:06;;;;;;;48.53;21.25;;;;;;;;;;5003112;28;20491;-87
2022/03/18 08:59:35;;;;;;;45.83;19.90;;;;;;;;;;5003159;28;20050;-86
2022/03/18 09:02:04;;;;;;;43.55;19.50;;;;;;;;;;5002840;28;20107;-86
2022/03/18 09:04:34;;;;;;;43.78;19.80;;;;;;;;;;5007980;28;20042;-87
2022/03/18 09:07:03;;;;;;;41.33;19.75;;;;;;;;;;5012544;28;20046;-86
2022/03/18 09:09:32;;;;;;;47.72;20.98;;;;;;;;;;5008100;28;20072;-86
2022/03/18 09:12:01;;;;;;;42.35;19.52;;;;;;;;;;5009266;28;20057;-87
2022/03/18 09:14:30;;;;;;;42.50;18.83;;;;;;;;;;5008062;28;20137;-86
2022/03/18 09:16:59;;;;;;;38.80;19.05;;;;;;;;;;5010398;28;20050;-86
2022/03/18 09:19:28;;;;;;;43.95;21.08;;;;;;;;;;5008410;28;20049;-87
2022/03/18 09:21:59;;;;;;;43.70;19.50;;;;;;;;;;4996443;28;20486;-87
2022/03/18 09:24:29;;;;;;;47.50;20.40;;;;;;;;;;5011103;28;20049;-87
2022/03/18 09:26:58;;;;;;;51.90;21.45;;;;;;;;;;5038065;28;20045;-86
2022/03/18 09:29:27;;;;;;;49.28;19.90;;;;;;;;;;5049489;28;20467;-88
2022/03/18 09:31:56;;;;;;;41.50;20.30;;;;;;;;;;5048304;28;20044;-88
2022/03/18 09:34:25;;;;;;;41.78;20.13;;;;;;;;;;5054494;28;20472;-87
2022/03/18 09:36:54;;;;;;;45.10;20.20;;;;;;;;;;5055228;28;20072;-87
2022/03/18 09:39:26;;;;;;;41.13;19.70;;;;;;;;;;5042922;28;20080;-87
2022/03/18 09:41:56;;;;;;;41.35;18.95;;;;;;;;;;5036730;28;20045;-88
2022/03/18 09:44:25;;;;;;;42.47;19.70;;;;;;;;;;5049649;28;20051;-87
2022/03/18 09:46:56;;;;;;;47.50;21.17;;;;;;;;;;5048866;28;20136;-87
2022/03/18 09:49:25;;;;;;;50.70;21.17;;;;;;;;;;5045784;28;20068;-88
2022/03/18 09:51:54;;;;;;;44.88;20.55;;;;;;;;;;5050201;28;20060;-87
2022/03/18 09:54:23;;;;;;;41.05;19.73;;;;;;;;;;5049558;28;20053;-87
2022/03/18 09:56:53;;;;;;;44.53;20.60;;;;;;;;;;5055414;28;20059;-87
2022/03/18 09:59:23;;;;;;;43.55;19.08;;;;;;;;;;5049365;28;20472;-87
2022/03/18 10:02:12;;;;;;;40.65;18.90;;;;;;;;;;5050292;28;20124;-87
2022/03/18 10:04:52;;;;;;;43.45;19.10;;;;;;;;;;5050381;28;20075;-87
2022/03/18 10:07:21;;;;;;;41.67;19.08;;;;;;;;;;5046595;28;20123;-87
2022/03/18 10:10:02;;;;;;;43.38;20.77;;;;;;;;;;5053776;28;20053;-87
2022/03/18 10:12:33;;;;;;;44.08;20.10;;;;;;;;;;5051292;28;20037;-87
2022/03/18 10:15:06;;;;;;;43.25;21.25;;;;;;;;;;5056697;28;20036;-88
2022/03/18 10:17:39;;;;;;;39.72;18.15;;;;;;;;;;5056610;28;20106;-87
2022/03/18 10:20:08;;;;;;;39.40;19.15;;;;;;;;;;5053068;28;20128;-87
2022/03/18 10:22:37;;;;;;;43.22;19.67;;;;;;;;;;5071174;28;20507;-86
2022/03/18 10:25:06;;;;;;;40.70;18.55;;;;;;;;;;5049789;28;20056;-88
2022/03/18 10:27:36;;;;;;;33.80;17.60;;;;;;;;;;5053409;28;20052;-88
2022/03/18 10:30:08;;;;;;;35.42;18.15;;;;;;;;;;5041486;28;20059;-87
2022/03/18 10:32:46;;;;;;;37.80;16.38;;;;;;;;;;5051562;28;20050;-87
2022/03/18 10:38:27;;;;;;;36.67;16.48;;;;;;;;;;5046894;28;20068;-88
2022/03/18 10:40:56;;;;;;;39.40;18.27;;;;;;;;;;5048012;28;20048;-88
2022/03/18 10:43:26;;;;;;;34.58;16.67;;;;;;;;;;5052189;28;20049;-87
2022/03/18 10:46:07;;;;;;;33.67;16.90;;;;;;;;;;5052444;28;20044;-87
2022/03/18 10:48:36;;;;;;;33.38;15.23;;;;;;;;;;5051338;28;20053;-87
2022/03/18 10:51:09;;;;;;;33.53;15.60;;;;;;;;;;5051674;28;20044;-88
2022/03/18 10:53:40;;;;;;;29.90;14.43;;;;;;;;;;5049197;28;20139;-87
2022/03/18 10:56:08;;;;;;;35.20;17.70;;;;;;;;;;5040510;28;20056;-88
2022/03/18 10:58:40;;;;;;;32.40;15.15;;;;;;;;;;5052583;28;20420;-88
2022/03/18 11:01:09;;;;;;;34.72;16.15;;;;;;;;;;5065245;28;20045;-88
2022/03/18 11:03:38;;;;;;;34.58;16.30;;;;;;;;;;5046320;28;20061;-87
2022/03/18 11:06:07;;;;;;;35.63;16.20;;;;;;;;;;5052400;28;20128;-88
2022/03/18 11:08:40;;;;;;;32.75;15.38;;;;;;;;;;5052803;28;20053;-87
2022/03/18 11:11:14;;;;;;;34.97;16.40;;;;;;;;;;5042390;28;20071;-88
2022/03/18 11:13:50;;;;;;;36.80;16.05;;;;;;;;;;5053206;28;20051;-88
2022/03/18 11:16:19;;;;;;;32.92;15.85;;;;;;;;;;5053812;28;20044;-88
2022/03/18 11:18:49;;;;;;;33.17;15.93;;;;;;;;;;5048238;28;20489;-88
2022/03/18 11:21:18;;;;;;;27.80;14.23;;;;;;;;;;5051580;28;20063;-87
2022/03/18 11:23:47;;;;;;;33.83;16.77;;;;;;;;;;5051868;28;20103;-88
2022/03/18 11:26:16;;;;;;;35.50;16.70;;;;;;;;;;5060815;28;20037;-88
2022/03/18 11:28:45;;;;;;;31.88;15.07;;;;;;;;;;5053095;28;20408;-87
2022/03/18 11:31:21;;;;;;;30.02;16.00;;;;;;;;;;5051809;28;20095;-87
2022/03/18 11:34:09;;;;;;;35.17;15.50;;;;;;;;;;5048966;28;20052;-88
2022/03/18 11:36:38;;;;;;;30.13;15.13;;;;;;;;;;5034173;28;20112;-88
2022/03/18 11:39:08;;;;;;;31.75;14.55;;;;;;;;;;5033653;28;20068;-88
2022/03/18 11:41:46;;;;;;;31.98;14.07;;;;;;;;;;5030955;28;20049;-88
2022/03/18 11:44:34;;;;;;;30.77;14.85;;;;;;;;;;5032446;28;20128;-88
2022/03/18 11:47:17;;;;;;;33.08;15.52;;;;;;;;;;5027733;28;20107;-88
2022/03/18 11:49:47;;;;;;;31.70;15.45;;;;;;;;;;5024949;28;20115;-88
2022/03/18 11:52:16;;;;;;;31.30;15.23;;;;;;;;;;5040102;28;20053;-88
2022/03/18 11:54:50;;;;;;;32.72;14.02;;;;;;;;;;5032456;28;20115;-88
2022/03/18 11:57:29;;;;;;;31.38;14.73;;;;;;;;;;5029667;28;20238;-88
2022/03/18 12:00:00;;;;;;;27.48;14.05;;;;;;;;;;5022319;28;20124;-88
2022/03/18 12:02:32;;;;;;;29.70;14.10;;;;;;;;;;5032986;28;20057;-88
2022/03/18 12:05:03;;;;;;;26.33;13.60;;;;;;;;;;5025243;28;20052;-88
2022/03/18 12:07:33;;;;;;;25.88;13.55;;;;;;;;;;5032085;28;20061;-88
2022/03/18 12:10:03;;;;;;;24.08;12.55;;;;;;;;;;5030006;28;20045;-87
2022/03/18 12:12:32;;;;;;;30.27;14.43;;;;;;;;;;5033564;28;20136;-88
2022/03/18 12:15:03;;;;;;;29.38;14.73;;;;;;;;;;5027594;28;20052;-88
2022/03/18 12:17:32;;;;;;;28.77;14.57;;;;;;;;;;5029019;28;20049;-87
2022/03/18 12:20:02;;;;;;;26.00;13.32;;;;;;;;;;5025479;28;20067;-88
2022/03/18 12:22:31;;;;;;;27.70;14.00;;;;;;;;;;5029177;28;20045;-88
2022/03/18 12:25:00;;;;;;;29.23;15.25;;;;;;;;;;5029461;28;20481;-88
2022/03/18 12:27:30;;;;;;;29.80;15.10;;;;;;;;;;5023713;28;20165;-89
2022/03/18 12:29:59;;;;;;;28.55;14.25;;;;;;;;;;5024140;28;20053;-88
2022/03/18 12:32:33;;;;;;;31.63;15.07;;;;;;;;;;5018255;28;20050;-87
2022/03/18 12:35:04;;;;;;;27.65;14.27;;;;;;;;;;5035578;28;20152;-88
2022/03/18 12:37:34;;;;;;;34.25;15.15;;;;;;;;;;5045170;28;20229;-88
2022/03/18 12:40:07;;;;;;;27.98;15.05;;;;;;;;;;5042985;28;20046;-92
2022/03/18 12:42:46;;;;;;;30.40;14.10;;;;;;;;;;5047815;28;20488;-87
2022/03/18 12:45:24;;;;;;;29.40;14.18;;;;;;;;;;5044909;28;20049;-88
2022/03/18 12:47:53;;;;;;;25.42;13.88;;;;;;;;;;5047516;28;20053;-88
2022/03/18 12:50:27;;;;;;;28.58;15.00;;;;;;;;;;5044742;28;20060;-89
2022/03/18 12:52:56;;;;;;;28.90;13.95;;;;;;;;;;5046331;28;20060;-87
2022/03/18 12:55:26;;;;;;;29.88;15.00;;;;;;;;;;5046546;28;20052;-87
2022/03/18 12:57:55;;;;;;;26.50;13.85;;;;;;;;;;5041454;28;20064;-88
2022/03/18 13:00:24;;;;;;;26.30;14.10;;;;;;;;;;5048785;28;20044;-88
2022/03/18 13:03:15;;;;;;;26.73;14.23;;;;;;;;;;5043883;28;20052;-88
2022/03/18 13:05:46;;;;;;;28.42;14.73;;;;;;;;;;5046234;28;20048;-88
2022/03/18 13:08:17;;;;;;;30.35;14.73;;;;;;;;;;5044892;28;20049;-89
2022/03/18 13:10:54;;;;;;;27.77;14.85;;;;;;;;;;5045625;28;20070;-89
2022/03/18 13:13:25;;;;;;;27.83;15.02;;;;;;;;;;5051482;28;20068;-92
2022/03/18 13:15:58;;;;;;;26.63;14.38;;;;;;;;;;5051914;28;20047;-92
2022/03/18 13:18:31;;;;;;;27.48;15.13;;;;;;;;;;5051788;28;20472;-92
2022/03/18 13:21:22;;;;;;;32.05;14.93;;;;;;;;;;5034939;28;20059;-92
2022/03/18 13:23:54;;;;;;;29.15;13.52;;;;;;;;;;5048305;28;20053;-91
2022/03/18 13:26:24;;;;;;;32.85;14.00;;;;;;;;;;5047571;28;20409;-92
2022/03/18 13:28:54;;;;;;;28.48;14.48;;;;;;;;;;5047026;28;20106;-92
2022/03/18 13:34:11;;;;;;;28.73;14.57;;;;;;;;;;5044860;28;20052;-93
2022/03/18 13:36:41;;;;;;;30.80;15.38;;;;;;;;;;5019341;28;20049;-91
2022/03/18 13:39:10;;;;;;;31.00;14.35;;;;;;;;;;5015913;28;20052;-92
2022/03/18 13:41:43;;;;;;;26.98;14.20;;;;;;;;;;5031322;28;20037;-92
2022/03/18 13:44:12;;;;;;;26.42;14.48;;;;;;;;;;5031299;28;20057;-91
2022/03/18 13:56:14;;;;;;;26.75;14.00;;;;;;;;;;5046057;28;20041;-92
2022/03/18 13:58:43;;;;;;;24.55;12.70;;;;;;;;;;5053051;28;20050;-91
2022/03/18 14:01:13;;;;;;;30.20;14.60;;;;;;;;;;5052113;28;20042;-92
2022/03/18 14:09:58;;;;;;;26.60;13.90;;;;;;;;;;5051100;28;20282;-92
2022/03/18 14:12:28;;;;;;;29.60;14.43;;;;;;;;;;5048177;28;20073;-92
2022/03/18 14:15:12;;;;;;;26.02;14.10;;;;;;;;;;5062066;28;20049;-92
2022/03/18 14:17:58;;;;;;;30.25;14.27;;;;;;;;;;5040579;28;20101;-91
2022/03/18 14:30:06;;;;;;;25.50;13.05;;;;;;;;;;4923213;29;20092;-93
2022/03/18 14:35:52;;;;;;;23.88;11.85;;;;;;;;;;4908217;29;20064;-92
2022/03/18 14:42:04;;;;;;;;;;;;;;;;;;4969749;28;20539;-92
2022/03/18 14:44:50;;;;;;;29.05;14.27;;;;;;;;;;4974512;28;20541;-92
2022/03/18 14:47:21;;;;;;;26.73;13.00;;;;;;;;;;4971416;28;20545;-91
2022/03/18 14:49:50;;;;;;;25.33;13.40;;;;;;;;;;4969275;28;20054;-90
2022/03/18 14:52:21;;;;;;;25.70;12.18;;;;;;;;;;4972849;28;20102;-92
2022/03/18 15:01:19;;;;;;;27.42;13.57;;;;;;;;;;5051910;28;20490;-91
2022/03/18 15:11:01;;;;;;;19.90;10.57;;;;;;;;;;4912467;29;20054;-90
2022/03/18 15:13:32;;;;;;;22.90;11.23;;;;;;;;;;4933521;28;20073;-90
2022/03/18 15:16:02;;;;;;;20.70;10.50;;;;;;;;;;4937727;29;20051;-90
2022/03/18 15:18:36;;;;;;;18.33;9.90;;;;;;;;;;4942925;28;20047;-90
2022/03/18 15:21:11;;;;;;;19.40;8.70;;;;;;;;;;4929912;29;20052;-89
2022/03/18 15:29:08;;;;;;;20.70;8.50;;;;;;;;;;4931396;29;20055;-90
2022/03/18 15:31:39;;;;;;;19.48;8.93;;;;;;;;;;4929812;29;20621;-90
2022/03/18 15:34:10;;;;;;;15.13;8.55;;;;;;;;;;4933505;28;20771;-90
2022/03/18 15:36:39;;;;;;;18.55;9.65;;;;;;;;;;4932249;29;20055;-89
2022/03/18 15:39:08;;;;;;;16.30;7.95;;;;;;;;;;4986022;28;20050;-90
2022/03/18 15:41:38;;;;;;;20.00;9.82;;;;;;;;;;5000676;28;20052;-90
2022/03/18 15:44:09;;;;;;;20.30;12.10;;;;;;;;;;5031442;28;20049;-90
2022/03/18 15:46:38;;;;;;;21.08;10.48;;;;;;;;;;5030582;28;20709;-90
2022/03/18 15:49:13;;;;;;;18.50;9.82;;;;;;;;;;5006289;28;20491;-90
2022/03/18 15:51:43;;;;;;;17.90;9.73;;;;;;;;;;5029379;28;20050;-89
2022/03/18 15:54:23;;;;;;;21.88;10.93;;;;;;;;;;5018980;28;20048;-90
2022/03/18 15:57:01;;;;;;;18.55;10.88;;;;;;;;;;5032336;28;20400;-90
2022/03/18 15:59:30;;;;;;;19.38;10.05;;;;;;;;;;5032053;28;20097;-90
2022/03/18 16:01:58;;;;;;;21.13;10.40;;;;;;;;;;5026555;28;20081;-90
2022/03/18 16:04:29;;;;;;;21.38;9.73;;;;;;;;;;5035414;28;20060;-90
2022/03/18 16:07:00;;;;;;;20.23;10.30;;;;;;;;;;5031941;28;20064;-91